As Olivia — DYQC — position and weather

sailwx.info

Track history (hours):
 
Tides and Currents Weather Stations Pressure Air Temp Water Temp Dewpoint Dewpoint Depression Visibility Wind Speed Wind Dir Waves Ship Positions

As Olivia

Last reported at 2014-Aug-01 01:32 UTC. Time now 2014-Aug-02 02:43 UTC.
Position N 40°05' W 009°57'.

Length 146 m; draft 8.3 m.

Type: Ship (hazmat cat B). MMSI: 548767000.

Date/timePositionNaut miles runAvg speedWind from/ knotsBaromVisibWave heightAir tempDewpointWater temp
2014-Aug-01 01:32N 40°05' W 009°57'1812.9
2014-Aug-01 00:07N 39°46' W 009°57'2213.1
2014-Jul-31 22:27N 39°25' W 009°57'1513.1
2014-Jul-31 21:17N 39°09' W 009°57'1513.1
2014-Jul-31 20:09N 38°55' W 009°57'1113.2
2014-Jul-31 19:18N 38°43' W 009°57'1113.9
2014-Jul-31 18:33N 38°33' W 009°54'1714.3
2014-Jul-31 17:22N 38°17' W 009°49'1114.1
2014-Jul-31 16:33N 38°05' W 009°46'1513.7
2014-Jul-31 15:27N 37°51' W 009°42'1213.4
2014-Jul-31 14:32N 37°39' W 009°38'1413.6
2014-Jul-31 13:33N 37°26' W 009°34'1413.9
2014-Jul-31 12:33N 37°12' W 009°30'1514.2
2014-Jul-31 11:30N 36°58' W 009°26'1313.8
2014-Jul-31 10:34N 36°46' W 009°19'1413.4
2014-Jul-31 09:33N 36°38' W 009°05'1413.7
2014-Jul-31 08:33N 36°35' W 008°48'1413.7
2014-Jul-31 07:33N 36°31' W 008°32'1413.9
2014-Jul-31 06:31N 36°27' W 008°15'1313.9
2014-Jul-31 05:33N 36°23' W 007°59'1413.8
2014-Jul-31 04:33N 36°19' W 007°42'31413.1
2014-Jul-30 04:31N 36°25' W 001°12'1814.0
2014-Jul-30 03:13N 36°30' W 000°50'1013.8
2014-Jul-30 02:28N 36°32' W 000°38'1213.3
2014-Jul-30 01:33N 36°35' W 000°23'1212.5
2014-Jul-30 00:33N 36°38' W 000°08'1313.3
2014-Jul-29 23:33N 36°42' E 000°08'1413.7
2014-Jul-29 22:33N 36°45' E 000°25'1414.1
2014-Jul-29 21:31N 36°49' E 000°42'25214.0
2014-Jul-29 03:30N 37°38' E 005°52'2114.6
2014-Jul-29 02:03N 37°40' E 006°19'9314.3
2014-Jul-28 19:33N 37°48' E 008°16'1614.2
2014-Jul-28 18:24N 37°49' E 008°37'1813.4
2014-Jul-28 17:06N 37°51' E 008°59'813.6
2014-Jul-28 16:33N 37°51' E 009°08'1413.8
2014-Jul-28 15:32N 37°53' E 009°26'1413.8
2014-Jul-28 14:33N 37°54' E 009°43'12313.6
2014-Jul-28 05:30N 37°04' E 012°05'1713.4
2014-Jul-28 04:16N 36°55' E 012°23'913.0
2014-Jul-28 03:32N 36°50' E 012°32'1313.2
2014-Jul-28 02:33N 36°40' E 012°43'1313.3
2014-Jul-28 01:33N 36°31' E 012°55'1313.2
2014-Jul-28 00:33N 36°21' E 013°06'1313.0
2014-Jul-27 23:33N 36°11' E 013°17'1312.7
2014-Jul-27 22:33N 36°02' E 013°27'1313.0
2014-Jul-27 21:33N 35°52' E 013°38'1313.4
2014-Jul-27 20:33N 35°42' E 013°49'1313.4
2014-Jul-27 19:33N 35°33' E 014°00'1413.8
2014-Jul-27 18:34N 35°22' E 014°12'1413.8
2014-Jul-27 17:34N 35°12' E 014°23'1413.9
2014-Jul-27 16:34N 35°02' E 014°35'1414.0
2014-Jul-27 15:33N 34°52' E 014°46'1414.2
2014-Jul-27 14:33N 34°41' E 014°58'1414.3
2014-Jul-27 13:33N 34°31' E 015°10'1414.2
2014-Jul-27 12:33N 34°20' E 015°22'1514.0
2014-Jul-27 11:28N 34°09' E 015°34'1314.0
2014-Jul-27 10:32N 33°60' E 015°45'1414.2
2014-Jul-27 09:33N 33°49' E 015°56'1414.3
2014-Jul-27 08:33N 33°39' E 016°08'1414.4
2014-Jul-27 07:34N 33°28' E 016°19'1514.3
2014-Jul-27 06:30N 33°17' E 016°31'13514.6
2014-Jul-26 21:16N 31°38' E 018°19'8514.3
2014-Jul-26 15:21N 30°35' E 019°26'  
2014-Jul-23 01:09N 36°17' E 023°05'0 0.0
2014-Jul-23 00:15N 36°17' E 023°05'0 0.0
2014-Jul-22 21:21N 36°17' E 023°05'0 0.0
2014-Jul-22 17:21N 36°17' E 023°05'0 0.0
2014-Jul-22 06:34N 36°17' E 023°04'  
Track history (hours):
 
Tides and Currents Weather Stations Pressure Air Temp Water Temp Dewpoint Dewpoint Depression Visibility Wind Speed Wind Dir Waves Ship Positions

As Olivia

Last reported at 2014-Aug-01 01:32 UTC. Time now 2014-Aug-02 02:43 UTC.
Position N 40°05' W 009°57'.

Length 146 m; draft 8.3 m.

Type: Ship (hazmat cat B). MMSI: 548767000.

Date/timePositionNaut miles runAvg speedWind from/ knotsBaromVisibWave heightAir tempDewpointWater temp
2014-Aug-01 01:32N 40°05' W 009°57'1812.9
2014-Aug-01 00:07N 39°46' W 009°57'2213.1
2014-Jul-31 22:27N 39°25' W 009°57'1513.1
2014-Jul-31 21:17N 39°09' W 009°57'1513.1
2014-Jul-31 20:09N 38°55' W 009°57'1113.2
2014-Jul-31 19:18N 38°43' W 009°57'1113.9
2014-Jul-31 18:33N 38°33' W 009°54'1714.3
2014-Jul-31 17:22N 38°17' W 009°49'1114.1
2014-Jul-31 16:33N 38°05' W 009°46'1513.7
2014-Jul-31 15:27N 37°51' W 009°42'1213.4
2014-Jul-31 14:32N 37°39' W 009°38'1413.6
2014-Jul-31 13:33N 37°26' W 009°34'1413.9
2014-Jul-31 12:33N 37°12' W 009°30'1514.2
2014-Jul-31 11:30N 36°58' W 009°26'1313.8
2014-Jul-31 10:34N 36°46' W 009°19'1413.4
2014-Jul-31 09:33N 36°38' W 009°05'1413.7
2014-Jul-31 08:33N 36°35' W 008°48'1413.7
2014-Jul-31 07:33N 36°31' W 008°32'1413.9
2014-Jul-31 06:31N 36°27' W 008°15'1313.9
2014-Jul-31 05:33N 36°23' W 007°59'1413.8
2014-Jul-31 04:33N 36°19' W 007°42'31413.1
2014-Jul-30 04:31N 36°25' W 001°12'1814.0
2014-Jul-30 03:13N 36°30' W 000°50'1013.8
2014-Jul-30 02:28N 36°32' W 000°38'1213.3
2014-Jul-30 01:33N 36°35' W 000°23'1212.5
2014-Jul-30 00:33N 36°38' W 000°08'1313.3
2014-Jul-29 23:33N 36°42' E 000°08'1413.7
2014-Jul-29 22:33N 36°45' E 000°25'1414.1
2014-Jul-29 21:31N 36°49' E 000°42'25214.0
2014-Jul-29 03:30N 37°38' E 005°52'2114.6
2014-Jul-29 02:03N 37°40' E 006°19'9314.3
2014-Jul-28 19:33N 37°48' E 008°16'1614.2
2014-Jul-28 18:24N 37°49' E 008°37'1813.4
2014-Jul-28 17:06N 37°51' E 008°59'813.6
2014-Jul-28 16:33N 37°51' E 009°08'1413.8
2014-Jul-28 15:32N 37°53' E 009°26'1413.8
2014-Jul-28 14:33N 37°54' E 009°43'12313.6
2014-Jul-28 05:30N 37°04' E 012°05'1713.4
2014-Jul-28 04:16N 36°55' E 012°23'913.0
2014-Jul-28 03:32N 36°50' E 012°32'1313.2
2014-Jul-28 02:33N 36°40' E 012°43'1313.3
2014-Jul-28 01:33N 36°31' E 012°55'1313.2
2014-Jul-28 00:33N 36°21' E 013°06'1313.0
2014-Jul-27 23:33N 36°11' E 013°17'1312.7
2014-Jul-27 22:33N 36°02' E 013°27'1313.0
2014-Jul-27 21:33N 35°52' E 013°38'1313.4
2014-Jul-27 20:33N 35°42' E 013°49'1313.4
2014-Jul-27 19:33N 35°33' E 014°00'1413.8
2014-Jul-27 18:34N 35°22' E 014°12'1413.8
2014-Jul-27 17:34N 35°12' E 014°23'1413.9
2014-Jul-27 16:34N 35°02' E 014°35'1414.0
2014-Jul-27 15:33N 34°52' E 014°46'1414.2
2014-Jul-27 14:33N 34°41' E 014°58'1414.3
2014-Jul-27 13:33N 34°31' E 015°10'1414.2
2014-Jul-27 12:33N 34°20' E 015°22'1514.0
2014-Jul-27 11:28N 34°09' E 015°34'1314.0
2014-Jul-27 10:32N 33°60' E 015°45'1414.2
2014-Jul-27 09:33N 33°49' E 015°56'1414.3
2014-Jul-27 08:33N 33°39' E 016°08'1414.4
2014-Jul-27 07:34N 33°28' E 016°19'1514.3
2014-Jul-27 06:30N 33°17' E 016°31'13514.6
2014-Jul-26 21:16N 31°38' E 018°19'8514.3
2014-Jul-26 15:21N 30°35' E 019°26'  
2014-Jul-23 01:09N 36°17' E 023°05'0 0.0
2014-Jul-23 00:15N 36°17' E 023°05'0 0.0
2014-Jul-22 21:21N 36°17' E 023°05'0 0.0
2014-Jul-22 17:21N 36°17' E 023°05'0 0.0
2014-Jul-22 06:34N 36°17' E 023°04'  

Dump ship's entire track history